EGPD/ABZ METAR and TAF weather

Enter ICAO airport designator
Station Type Date Time Source
EGPD METAR 2020/10/22 03:20 UTC NOAA

EGPD 220320Z AUTO 06007KT 5000 -RADZ BKN003/// OVC015/// //////CB 11/11 Q0993


Station Type Date Time Source
EGPD Decoded METAR 2020/10/22 03:20 UTC NOAA

Aberdeen / Dyce, United Kingdom (EGPD) 57-12N 002-13W 0M
Oct 21, 2020 - 11:20 PM EDT / 2020.10.22 0320 UTC
Wind: from the ENE (060 degrees) at 8 MPH (7 KT):0
Visibility: 3 mile(s):0
Sky conditions: overcast
Weather: light rain, drizzle; Cumulonimbus clouds observed
Temperature: 51 F (11 C)
Dew Point: 51 F (11 C)
Relative Humidity: 100%
Pressure (altimeter): 29.32 in. Hg (0993 hPa)
ob: EGPD 220320Z AUTO 06007KT 5000 -RADZ BKN003/// OVC015/// //////CB 11/11 Q0993
cycle: 3

Station Type Date Time Source
EGPD TAF 2020/10/22 00:00 UTC NOAA

TAF
AMD EGPD 220058Z 2200/2224 VRB04KT 9999 SCT003 BKN008
TEMPO 2200/2206 1200 RADZ BR BKN003 PROB30
TEMPO 2200/2206 +RA
BECMG 2203/2206 02010KT BKN010 PROB30
TEMPO 2204/2210 03015G25KT
TEMPO 2206/2212 6000 RA BKN006 PROB40
TEMPO 2206/2209 4000 RADZ BR BKN004
BECMG 2209/2212 SCT025
BECMG 2214/2217 VRB03KT PROB30
TEMPO 2221/2224 6000 SHRA BKN014

Example: see airport list